Kezdőlap
METAR-TAF:

METAR-TAF

Repülőterek :

Córdoba, Argentína

földrajzi szélesség: 31-19S, földrajzi hosszúság: 064-13W, magasság: 484 m

Jelenlegi meteorológiai megfigyelések

A jelentés 1 órával és 6 perccel ezelõtt készült, 13:00 UTC
Dél-délnyugati szél 14 kt
Hőmérséklet 25°C
Páratartalom 26%
Légköri nyomás 1010 hPa
Látótávolság 10 km, vagy több
Kevés felhő 4000 lábon

METAR: SACO 231300Z 20014KT 9999 FEW040 25/04 Q1010 NOSIG

Idő: 11:06 (14:06 UTC)

Előrejelzés

A jelentés 9 órával és 6 perccel ezelõtt készült, 05:00 UTC
Az előrejelzés 23-én 06 óra UTC és 24-én 06 óra UTC között érvényes
Dél-délnyugati szél 15 kt
Látótávolság 10 km, vagy több
Szakadozott felhőzet 3000 lábon
23-én 16 óra UTC és 23-én 18 óra UTC között fokozatosan kialakuló
Dél-délkeleti szél 10 kt
Látótávolság: 8000 m
Szakadozott felhőzet 2500 lábon

TAF: SACO 230500Z 2306/2406 20015KT 9999 BKN030 TX26/2318Z TN17/2310Z BECMG 2316/2318 16010KT 8000 BKN025

Meteorológiai megfigyelések és előrejelzések több, mint 4000 repülőtéren (METAR és TAF jelentéseket).

A térképen piros és sárga pontok jelzik az elérhető meteorológiai állomásokat.

Mozgassa az egeret a pont fölött, hogy megjelenjen az állomás neve.

Azután kattintson az időjárási megfigyelések és előrejelzések megtekintéséhez.

A térkép megváltoztatása: kattintson a fekete keresztel jelölt zöld gombra ráközelítéshez, a vonallal jelölt zöld gombra távolításhoz, vagy a zöld nyilakra a szomszédos térképek eléréséhez.


METAR-TAF: